WetterOnline ( https://www.wetteronline.ch )

Wetter aktuell Lohr

Aktuelles Wetter: Neuhütten/Spessart (340m)

6-stündlich | Neueste Meldungen
Ortszeit Temperatur Wetter
Sa, 24.08. 20:00 25.4° C leicht bewölkt
Sa, 24.08. 14:00 27.4° C bewölkt
Sa, 24.08. 8:00 11.4° C wolkenlos
Sa, 24.08. 2:00 12.6° C wolkenlos
Fr, 23.08. 20:00 24.2° C wolkenlos
Fr, 23.08. 14:00 25.2° C wolkenlos
Fr, 23.08. 8:00 9.6° C wolkenlos
Fr, 23.08. 2:00 10.2° C wolkenlos
Ortszeit Temperatur Wetter
So, 25.08. 0:00 19.3° C leicht bewölkt
Sa, 24.08. 23:50 19.3° C leicht bewölkt
Sa, 24.08. 23:40 19.5° C wolkig
Sa, 24.08. 23:30 19.8° C leicht bewölkt
Sa, 24.08. 23:20 19.8° C leicht bewölkt
Sa, 24.08. 23:10 19.7° C leicht bewölkt
Sa, 24.08. 23:00 20.2° C wolkenlos
Sa, 24.08. 22:30 20.2° C leicht bewölkt
Sa, 24.08. 22:00 21.0° C leicht bewölkt
Sa, 24.08. 21:30 22.0° C leichter Regen
Sa, 24.08. 21:00 23.1° C bewölkt
Ortszeit Relative Feuchte Sichtweite
Sa, 24.08. 20:00 53% 35 km
Sa, 24.08. 14:00 44% 55 km
Sa, 24.08. 8:00 86% 35 km
Sa, 24.08. 2:00 83% 45 km
Fr, 23.08. 20:00 37% 55 km
Fr, 23.08. 14:00 33% 65 km
Fr, 23.08. 8:00 87% 30 km
Fr, 23.08. 2:00 90% 35 km
Ortszeit Relative Feuchte Sichtweite
So, 25.08. 0:00 85% 27 km
Sa, 24.08. 23:50 85% -
Sa, 24.08. 23:40 84% -
Sa, 24.08. 23:30 83% 28 km
Sa, 24.08. 23:20 83% -
Sa, 24.08. 23:10 85% -
Sa, 24.08. 23:00 82% 28 km
Sa, 24.08. 22:30 85% 25 km
Sa, 24.08. 22:00 77% 30 km
Sa, 24.08. 21:30 72% 26 km
Sa, 24.08. 21:00 65% 35 km
Ortszeit Niederschlagsmenge Niederschlagsart
Sa, 24.08. 20:00 0.1 l/m2 in 12 Std. -
Sa, 24.08. 14:00 0.1 l/m2 in 6 Std. Regen
Sa, 24.08. 8:00 0.0 l/m2 in 12 Std. -
Sa, 24.08. 2:00 0.0 l/m2 in 6 Std. -
Fr, 23.08. 20:00 0.0 l/m2 in 12 Std. -
Fr, 23.08. 14:00 0.0 l/m2 in 6 Std. -
Fr, 23.08. 8:00 0.0 l/m2 in 12 Std. -
Fr, 23.08. 2:00 0.0 l/m2 in 6 Std. -
Ortszeit Niederschlagsmenge Niederschlagsart
So, 25.08. 0:00 0.0 l/m2 in 1 Std. -
Sa, 24.08. 23:50 keine Meldung -
Sa, 24.08. 23:40 keine Meldung -
Sa, 24.08. 23:30 0.0 l/m2 in 1 Std. -
Sa, 24.08. 23:20 keine Meldung -
Sa, 24.08. 23:10 keine Meldung -
Sa, 24.08. 23:00 0.0 l/m2 in 1 Std. Regen
Sa, 24.08. 22:30 0.0 l/m2 in 1 Std. -
Sa, 24.08. 22:00 0.1 l/m2 in 1 Std. Regen
Sa, 24.08. 21:30 0.1 l/m2 in 1 Std. -
Sa, 24.08. 21:00 0.0 l/m2 in 1 Std. -
Ortszeit Stärke Spitze Richtung
km/h Bft. km/h Grad Sektor
Sa, 24.08. 20:00 4 1 25 50° NO
Sa, 24.08. 14:00 13 3 26 60° NO
Sa, 24.08. 8:00 0 0 4 - -
Sa, 24.08. 2:00 2 1 7 360° N
Fr, 23.08. 20:00 6 1 30 70° O
Fr, 23.08. 14:00 15 3 24 60° NO
Fr, 23.08. 8:00 4 1 4 230° SW
Fr, 23.08. 2:00 4 1 7 300° NW
Ortszeit Stärke Spitze Richtung
km/h Bft. km/h Grad Sektor
So, 25.08. 0:00 4 1 7 340° N
Sa, 24.08. 23:50 4 1 - 340° N
Sa, 24.08. 23:40 4 1 - 330° NW
Sa, 24.08. 23:30 4 1 7 300° NW
Sa, 24.08. 23:20 4 1 - 300° NW
Sa, 24.08. 23:10 4 1 - 260° W
Sa, 24.08. 23:00 4 1 7 210° SW
Sa, 24.08. 22:30 6 1 6 200° S
Sa, 24.08. 22:00 4 1 7 250° W
Sa, 24.08. 21:30 4 1 4 260° W
Sa, 24.08. 21:00 4 1 4 230° SW
Ortszeit Untergrenze Bedeckung Gattung
total tief tief mittel hoch
Sa, 24.08. 20:00 1800 m 2/8 2/8 - - -
Sa, 24.08. 14:00 1500 m 7/8 7/8 - - -
Sa, 24.08. 8:00 - 0/8 0/8 - - -
Sa, 24.08. 2:00 - 0/8 0/8 - - -
Fr, 23.08. 20:00 - 0/8 0/8 - - -
Fr, 23.08. 14:00 - 0/8 0/8 - - -
Fr, 23.08. 8:00 - 0/8 0/8 - - -
Fr, 23.08. 2:00 - 0/8 0/8 - - -
Ortszeit Bedeckungsgrad in Achtel und Wolkenuntergrenze
So, 25.08. 0:00 1(1470m) 3(2700m)
Sa, 24.08. 23:50 1(1470m) 2(2100m) 3(2700m)
Sa, 24.08. 23:40 3(1500m) 3(1800m) 5(2400m)
Sa, 24.08. 23:30 4(1500m) 4(1800m) 4(2400m)
Sa, 24.08. 23:20 4(1500m) 4(1800m)
Sa, 24.08. 23:10 2(1470m)
Sa, 24.08. 23:00 1(1470m)
Sa, 24.08. 22:30 2(1500m) 3(2700m)
Sa, 24.08. 22:00 1(1500m) 4(2700m)
Sa, 24.08. 21:30 3(1500m) 7(2400m) 7(3000m)
Sa, 24.08. 21:00 5(1500m) 7(2400m) 7(3000m)
Ortszeit Luftdruck NN (hPa) Tendenz (hPa in 3 Std.)
Sa, 24.08. 20:00 1018 - 0,6
Sa, 24.08. 14:00 1020 - 1,1
Sa, 24.08. 8:00 1023 - 0,4
Sa, 24.08. 2:00 1024 - 0,1
Fr, 23.08. 20:00 1022 - 0,8
Fr, 23.08. 14:00 1024 - 1,5
Fr, 23.08. 8:00 1027 + 0,2
Fr, 23.08. 2:00 1027 + 0,1
Ortszeit Luftdruck NN (hPa) Tendenz (hPa in 3 Std.)
So, 25.08. 0:00 1019 0,0
Sa, 24.08. 23:50 1019 keine Meldung
Sa, 24.08. 23:40 1019 keine Meldung
Sa, 24.08. 23:30 1019 + 0,1
Sa, 24.08. 23:20 1019 keine Meldung
Sa, 24.08. 23:10 1019 keine Meldung
Sa, 24.08. 23:00 1019 - 0,1
Sa, 24.08. 22:30 1019 0,0
Sa, 24.08. 22:00 1019 + 0,2
Sa, 24.08. 21:30 1019 + 0,2
Sa, 24.08. 21:00 1018 0,0
Ortszeit Schneehöhe (cm)
Sa, 24.08. 20:00 -
Sa, 24.08. 14:00 -
Sa, 24.08. 8:00 -
Sa, 24.08. 2:00 -
Fr, 23.08. 20:00 -
Fr, 23.08. 14:00 -
Fr, 23.08. 8:00 -
Fr, 23.08. 2:00 -
Ortszeit Schneehöhe (cm)
So, 25.08. 0:00 -
Sa, 24.08. 23:50 -
Sa, 24.08. 23:40 -
Sa, 24.08. 23:30 -
Sa, 24.08. 23:20 -
Sa, 24.08. 23:10 -
Sa, 24.08. 23:00 -
Sa, 24.08. 22:30 -
Sa, 24.08. 22:00 -
Sa, 24.08. 21:30 -
Sa, 24.08. 21:00 -
Link zu dieser Seite / Seite empfehlen

Das Wetter in ...